createdAt,value
2022-08-09T00:01:54.893Z,101680.97
2022-08-09T00:04:34.314Z,101682.19
2022-08-09T00:07:10.741Z,101684.25
2022-08-09T00:09:40.911Z,101695.22
2022-08-09T00:12:22.513Z,101687.31
2022-08-09T00:14:55.895Z,101684.69
2022-08-09T00:18:07.585Z,101681.47
2022-08-09T00:20:17.142Z,101670.69
2022-08-09T00:22:49.843Z,101675.34
2022-08-09T00:25:23.370Z,101671.34
2022-08-09T00:28:04.155Z,101670.38
2022-08-09T00:30:34.225Z,101669.03
2022-08-09T00:33:04.096Z,101674.25
2022-08-09T00:35:43.011Z,101669.97
2022-08-09T00:38:16.159Z,101679.97
2022-08-09T00:40:53.271Z,101681.78
2022-08-09T00:44:14.580Z,101678.34
2022-08-09T00:46:14.553Z,101675.84
2022-08-09T00:49:04.013Z,101675.25
2022-08-09T00:51:42.572Z,101678.13
2022-08-09T00:54:19.368Z,101676.56
2022-08-09T00:56:49.524Z,101674.09
2022-08-09T00:59:41.693Z,101670.56
2022-08-09T01:02:10.202Z,101677.72
2022-08-09T01:04:51.020Z,101681.50
2022-08-09T01:07:37.995Z,101685.00
2022-08-09T01:10:23.359Z,101682.88
2022-08-09T01:13:02.621Z,101685.75
2022-08-09T01:15:40.814Z,101684.03
2022-08-09T01:18:14.437Z,101686.69
2022-08-09T01:20:49.756Z,101675.31
2022-08-09T01:24:02.043Z,101682.72
2022-08-09T01:26:41.705Z,101680.75
2022-08-09T01:29:13.200Z,101684.59
2022-08-09T01:32:31.187Z,101683.75
2022-08-09T01:34:37.707Z,101673.34
2022-08-09T01:37:09.302Z,101681.38
2022-08-09T01:39:40.010Z,101677.03
2022-08-09T01:42:12.546Z,101683.38
2022-08-09T01:44:43.076Z,101679.84
2022-08-09T01:47:13.413Z,101688.53
2022-08-09T01:49:54.514Z,101681.38
2022-08-09T01:52:25.287Z,101689.47
2022-08-09T01:54:59.305Z,101682.34
2022-08-09T01:57:40.097Z,101685.19
2022-08-09T02:00:34.675Z,101693.97
2022-08-09T02:03:11.370Z,101689.66
2022-08-09T02:06:03.642Z,101695.16
2022-08-09T02:08:41.255Z,101697.91
2022-08-09T02:11:24.736Z,101698.09
2022-08-09T02:14:25.660Z,101698.09
2022-08-09T02:17:14.773Z,101703.94
2022-08-09T02:19:47.628Z,101695.16
2022-08-09T02:22:38.079Z,101692.50
2022-08-09T02:25:17.036Z,101690.16
2022-08-09T02:28:00.601Z,101686.63
2022-08-09T02:30:41.522Z,101693.78
2022-08-09T02:33:14.235Z,101687.72
2022-08-09T02:36:02.838Z,101682.56
2022-08-09T02:38:38.033Z,101683.59
2022-08-09T02:41:12.408Z,101683.59
2022-08-09T02:43:54.643Z,101675.66
2022-08-09T02:46:29.835Z,101675.94
2022-08-09T02:49:02.829Z,101677.03
2022-08-09T02:51:40.245Z,101674.44
2022-08-09T02:54:13.974Z,101671.09
2022-08-09T02:56:51.287Z,101673.91
2022-08-09T02:59:36.703Z,101678.56
2022-08-09T03:02:17.069Z,101673.47
2022-08-09T03:04:50.774Z,101677.16
2022-08-09T03:07:21.482Z,101676.44
2022-08-09T03:09:54.410Z,101670.25
2022-08-09T03:12:27.510Z,101678.59
2022-08-09T03:14:58.638Z,101675.06
2022-08-09T03:17:31.645Z,101683.94
2022-08-09T03:20:11.059Z,101677.78
2022-08-09T03:22:44.705Z,101679.78
2022-08-09T03:25:26.775Z,101685.00
2022-08-09T03:28:26.206Z,101671.88
2022-08-09T03:30:57.137Z,101681.78
2022-08-09T03:33:54.176Z,101687.28
2022-08-09T03:36:19.419Z,101678.72
2022-08-09T03:38:50.796Z,101666.28
2022-08-09T03:41:20.513Z,101677.88
2022-08-09T03:44:07.784Z,101682.34
2022-08-09T03:46:39.105Z,101684.22
2022-08-09T03:49:11.789Z,101681.69
2022-08-09T03:51:58.143Z,101684.63
2022-08-09T03:54:34.515Z,101687.38
2022-08-09T03:57:17.916Z,101695.56
2022-08-09T03:59:54.265Z,101691.19
2022-08-09T04:02:28.347Z,101692.44
2022-08-09T04:05:06.433Z,101684.63
2022-08-09T04:07:53.294Z,101682.88
2022-08-09T04:10:29.400Z,101681.41
2022-08-09T04:13:04.040Z,101691.97
2022-08-09T04:15:52.502Z,101689.38
2022-08-09T04:18:24.982Z,101686.81
2022-08-09T04:20:57.640Z,101694.06
2022-08-09T04:23:27.472Z,101686.06
2022-08-09T04:25:58.013Z,101687.03
2022-08-09T04:28:34.241Z,101691.88
2022-08-09T04:31:08.120Z,101700.63
2022-08-09T04:33:51.981Z,101704.16
2022-08-09T04:36:28.091Z,101705.81
2022-08-09T04:39:00.032Z,101698.81
2022-08-09T04:41:33.240Z,101704.88
2022-08-09T04:44:06.076Z,101712.88
2022-08-09T04:46:58.314Z,101705.56
2022-08-09T04:49:55.070Z,101709.19
2022-08-09T04:52:27.546Z,101720.94
2022-08-09T04:54:57.999Z,101720.00
2022-08-09T04:57:59.070Z,101712.13
2022-08-09T05:00:18.629Z,101718.47
2022-08-09T05:02:48.616Z,101720.94
2022-08-09T05:05:31.810Z,101729.03
2022-08-09T05:08:15.582Z,101723.72
2022-08-09T05:10:47.599Z,101726.38
2022-08-09T05:13:17.311Z,101728.09
2022-08-09T05:15:52.071Z,101725.31
2022-08-09T05:18:39.912Z,101722.69
2022-08-09T05:21:19.934Z,101732.16
2022-08-09T05:24:01.008Z,101731.47
2022-08-09T05:26:37.091Z,101723.31
2022-08-09T05:29:21.864Z,101722.94
2022-08-09T05:31:58.426Z,101726.53
2022-08-09T05:34:31.142Z,101737.09
2022-08-09T05:37:06.182Z,101733.59
2022-08-09T05:39:43.602Z,101736.94
2022-08-09T05:42:17.409Z,101730.94
2022-08-09T05:44:51.724Z,101730.84
2022-08-09T05:47:22.861Z,101730.69
2022-08-09T05:50:30.349Z,101734.94
2022-08-09T05:52:43.323Z,101737.03
2022-08-09T05:55:20.377Z,101736.09
2022-08-09T05:57:56.682Z,101737.97
2022-08-09T06:00:29.071Z,101735.38
2022-08-09T06:02:59.499Z,101734.94
2022-08-09T06:05:31.371Z,101728.75
2022-08-09T06:08:24.617Z,101739.22
2022-08-09T06:10:59.148Z,101739.03
2022-08-09T06:13:33.944Z,101742.16
2022-08-09T06:16:04.840Z,101746.34
2022-08-09T06:18:35.428Z,101742.47
2022-08-09T06:21:08.093Z,101742.34
2022-08-09T06:23:57.962Z,101737.03
2022-08-09T06:26:30.292Z,101735.63
2022-08-09T06:29:04.955Z,101741.25
2022-08-09T06:31:40.315Z,101743.03
2022-08-09T06:34:26.278Z,101737.44
2022-08-09T06:37:00.146Z,101744.28
2022-08-09T06:39:49.086Z,101746.69
2022-08-09T06:42:24.955Z,101740.72
2022-08-09T06:44:58.965Z,101739.94
2022-08-09T06:47:39.815Z,101734.69
2022-08-09T06:50:16.688Z,101734.19
2022-08-09T06:52:49.119Z,101734.44
2022-08-09T06:55:22.435Z,101740.41
2022-08-09T06:58:03.159Z,101745.38
2022-08-09T07:00:51.955Z,101741.44
2022-08-09T07:03:27.605Z,101742.69
2022-08-09T07:06:03.771Z,101751.03
2022-08-09T07:08:37.355Z,101743.59
2022-08-09T07:11:12.598Z,101745.66
2022-08-09T07:14:04.880Z,101745.13
2022-08-09T07:16:43.303Z,101747.03
2022-08-09T07:19:18.492Z,101747.34
2022-08-09T07:21:57.638Z,101751.50
2022-08-09T07:24:32.128Z,101748.38
2022-08-09T07:27:26.718Z,101742.66
2022-08-09T07:30:03.809Z,101733.00
2022-08-09T07:32:35.437Z,101730.56
2022-08-09T07:35:08.146Z,101733.97
2022-08-09T07:37:44.068Z,101728.91
2022-08-09T07:40:17.693Z,101738.09
2022-08-09T07:42:55.955Z,101739.06
2022-08-09T07:45:39.787Z,101738.22
2022-08-09T07:48:25.229Z,101732.09
2022-08-09T07:51:10.372Z,101741.50
2022-08-09T07:54:06.183Z,101745.66
2022-08-09T07:56:44.961Z,101743.41
2022-08-09T07:59:34.267Z,101744.53
2022-08-09T08:02:19.096Z,101740.53
2022-08-09T08:04:53.510Z,101733.13
2022-08-09T08:08:43.469Z,101733.59
2022-08-09T08:10:13.523Z,101735.84
2022-08-09T08:12:45.616Z,101741.97
2022-08-09T08:15:24.315Z,101743.59
2022-08-09T08:17:58.670Z,101738.56
2022-08-09T08:20:32.280Z,101750.81
2022-08-09T08:23:16.086Z,101754.09
2022-08-09T08:25:50.374Z,101756.53
2022-08-09T08:28:35.896Z,101756.94
2022-08-09T08:31:13.871Z,101754.94
2022-08-09T08:33:53.138Z,101756.44
2022-08-09T08:36:29.494Z,101747.19
2022-08-09T08:39:00.768Z,101751.91
2022-08-09T08:41:51.169Z,101744.72
2022-08-09T08:44:27.505Z,101737.31
2022-08-09T08:47:05.013Z,101732.59
2022-08-09T08:49:48.520Z,101739.47
2022-08-09T08:55:19.067Z,101742.31
2022-08-09T08:57:56.141Z,101741.72
2022-08-09T09:00:30.022Z,101741.44
2022-08-09T09:03:08.720Z,101744.53
2022-08-09T09:05:58.437Z,101747.47
2022-08-09T09:08:37.611Z,101745.47
2022-08-09T09:11:13.613Z,101743.25
2022-08-09T09:13:56.282Z,101748.72
2022-08-09T09:16:30.693Z,101747.47
2022-08-09T09:19:22.740Z,101748.69
2022-08-09T09:22:07.695Z,101747.25
2022-08-09T09:24:43.403Z,101737.69
2022-08-09T09:27:22.119Z,101739.00
2022-08-09T09:30:38.266Z,101744.06
2022-08-09T09:33:15.912Z,101747.09
2022-08-09T09:36:01.703Z,101741.63
2022-08-09T09:38:49.245Z,101748.97
2022-08-09T09:41:48.740Z,101747.69
2022-08-09T09:44:31.635Z,101743.94
2022-08-09T09:47:10.113Z,101738.97
2022-08-09T09:50:07.195Z,101743.69
2022-08-09T09:52:57.373Z,101738.47
2022-08-09T09:55:32.944Z,101739.94
2022-08-09T09:58:16.469Z,101740.97
2022-08-09T10:00:54.059Z,101747.69
2022-08-09T10:03:58.065Z,101750.44
2022-08-09T10:06:32.134Z,101750.44
2022-08-09T10:09:21.544Z,101754.44
2022-08-09T10:12:12.506Z,101754.88
2022-08-09T10:14:51.303Z,101749.50
2022-08-09T10:17:50.307Z,101744.25
2022-08-09T10:20:33.083Z,101740.69
2022-08-09T10:23:20.384Z,101739.00
2022-08-09T10:26:06.881Z,101743.97
2022-08-09T10:28:49.075Z,101737.75
2022-08-09T10:32:35.728Z,101734.91
2022-08-09T10:34:33.474Z,101739.03
2022-08-09T10:37:04.484Z,101745.31
2022-08-09T10:39:40.542Z,101729.31
2022-08-09T10:42:18.985Z,101734.47
2022-08-09T10:44:57.493Z,101733.44
2022-08-09T10:48:26.218Z,101739.56
2022-08-09T10:50:51.920Z,101730.00
2022-08-09T10:53:46.569Z,101741.13
2022-08-09T10:56:23.323Z,101743.38
2022-08-09T10:58:54.020Z,101732.97
2022-08-09T11:03:13.708Z,101735.28
2022-08-09T11:04:35.368Z,101733.13
2022-08-09T11:07:55.063Z,101730.78
2022-08-09T11:10:54.792Z,101724.84
2022-08-09T11:13:50.743Z,101729.13
2022-08-09T11:16:50.969Z,101725.09
2022-08-09T11:20:19.785Z,101723.19
2022-08-09T11:23:02.852Z,101716.66
2022-08-09T11:25:47.200Z,101712.47
2022-08-09T11:28:56.186Z,101713.03
2022-08-09T11:31:52.872Z,101715.75
2022-08-09T11:34:42.842Z,101712.16
2022-08-09T11:37:18.222Z,101705.41
2022-08-09T11:40:04.233Z,101698.53
2022-08-09T11:42:46.952Z,101695.38
2022-08-09T11:45:42.220Z,101689.38
2022-08-09T11:48:26.579Z,101687.38
2022-08-09T11:53:00.786Z,101682.03
2022-08-09T11:54:28.983Z,101679.72
2022-08-09T11:57:47.649Z,101682.66
2022-08-09T12:00:27.837Z,101689.34
2022-08-09T12:02:59.179Z,101686.53
2022-08-09T12:05:39.882Z,101685.09
2022-08-09T12:08:21.679Z,101684.06
2022-08-09T12:10:53.841Z,101685.44
2022-08-09T12:14:07.397Z,101687.03
2022-08-09T12:16:37.813Z,101690.09
2022-08-09T12:19:12.126Z,101679.13
2022-08-09T12:21:50.243Z,101684.53
2022-08-09T12:24:24.927Z,101674.53
2022-08-09T12:29:10.174Z,101671.81
2022-08-09T12:30:02.116Z,101667.66
2022-08-09T12:32:48.740Z,101668.38
2022-08-09T12:35:21.689Z,101668.88
2022-08-09T12:37:54.463Z,101654.16
2022-08-09T12:40:27.271Z,101655.00
2022-08-09T12:42:57.704Z,101662.00
2022-08-09T12:45:34.899Z,101655.22
2022-08-09T12:48:19.898Z,101658.66
2022-08-09T12:50:58.437Z,101651.34
2022-08-09T12:53:38.672Z,101647.47
2022-08-09T12:56:39.259Z,101646.13
2022-08-09T12:59:10.959Z,101638.13
2022-08-09T13:01:48.730Z,101637.00
2022-08-09T13:04:36.894Z,101638.69
2022-08-09T13:07:16.581Z,101636.34
2022-08-09T13:09:55.412Z,101636.34
2022-08-09T13:12:30.758Z,101634.84
2022-08-09T13:15:08.044Z,101630.28
2022-08-09T13:18:02.655Z,101630.66
2022-08-09T13:22:33.035Z,101619.47
2022-08-09T13:24:44.697Z,101628.50
2022-08-09T13:26:42.209Z,101621.69
2022-08-09T13:29:14.108Z,101615.88
2022-08-09T13:32:16.212Z,101616.53
2022-08-09T13:34:52.083Z,101615.84
2022-08-09T13:37:50.427Z,101604.53
2022-08-09T13:41:50.813Z,101610.09
2022-08-09T13:43:09.565Z,101608.94
2022-08-09T13:46:42.556Z,101602.31
2022-08-09T13:48:30.024Z,101608.81
2022-08-09T13:50:59.852Z,101606.94
2022-08-09T13:53:41.444Z,101599.47
2022-08-09T13:56:14.199Z,101595.75
2022-08-09T13:58:46.646Z,101598.47
2022-08-09T14:01:56.253Z,101591.88
2022-08-09T14:04:11.502Z,101595.81
2022-08-09T14:06:43.855Z,101596.19
2022-08-09T14:09:16.393Z,101597.56
2022-08-09T14:11:47.237Z,101599.28
2022-08-09T14:14:26.819Z,101595.00
2022-08-09T14:16:58.614Z,101598.44
2022-08-09T14:19:33.363Z,101591.59
2022-08-09T14:22:03.707Z,101595.69
2022-08-09T14:24:33.625Z,101589.28
2022-08-09T14:27:03.579Z,101582.16
2022-08-09T14:30:34.593Z,101588.16
2022-08-09T14:32:43.028Z,101585.47
2022-08-09T14:35:14.240Z,101580.88
2022-08-09T14:38:02.433Z,101588.16
2022-08-09T14:41:00.606Z,101583.25
2022-08-09T14:43:23.571Z,101576.66
2022-08-09T14:46:51.265Z,101578.19
2022-08-09T14:48:45.587Z,101577.84
2022-08-09T14:51:15.257Z,101575.78
2022-08-09T14:53:48.684Z,101583.41
2022-08-09T14:56:22.491Z,101576.97
2022-08-09T14:58:57.862Z,101575.28
2022-08-09T15:01:30.327Z,101573.41
2022-08-09T15:04:00.328Z,101574.72
2022-08-09T15:06:31.317Z,101580.16
2022-08-09T15:09:01.357Z,101579.16
2022-08-09T15:11:31.069Z,101569.16
2022-08-09T15:14:04.814Z,101567.44
2022-08-09T15:16:45.941Z,101562.84
2022-08-09T15:19:19.966Z,101573.56
2022-08-09T15:21:55.328Z,101565.94
2022-08-09T15:24:29.749Z,101571.22
2022-08-09T15:26:59.837Z,101568.34
2022-08-09T15:30:58.561Z,101564.06
2022-08-09T15:32:29.059Z,101568.16
2022-08-09T15:35:01.049Z,101562.19
2022-08-09T15:37:56.773Z,101570.34
2022-08-09T15:40:32.297Z,101573.25
2022-08-09T15:43:03.593Z,101565.44
2022-08-09T15:46:02.844Z,101574.59
2022-08-09T15:48:29.484Z,101563.88
2022-08-09T15:51:02.225Z,101565.03
2022-08-09T15:54:06.894Z,101568.94
2022-08-09T15:56:41.505Z,101561.78
2022-08-09T15:59:14.335Z,101558.22
2022-08-09T16:01:44.042Z,101552.97
2022-08-09T16:04:16.415Z,101557.38
2022-08-09T16:06:52.785Z,101548.19
2022-08-09T16:09:32.492Z,101547.16
2022-08-09T16:12:13.672Z,101554.28
2022-08-09T16:14:45.881Z,101551.38
2022-08-09T16:17:17.005Z,101546.97
2022-08-09T16:20:04.166Z,101542.22
2022-08-09T16:22:42.055Z,101544.78
2022-08-09T16:25:14.359Z,101543.41
2022-08-09T16:27:47.931Z,101544.25
2022-08-09T16:30:28.492Z,101543.72
2022-08-09T16:33:11.608Z,101548.63
2022-08-09T16:35:57.078Z,101541.81
2022-08-09T16:38:29.851Z,101537.72
2022-08-09T16:41:04.039Z,101548.41
2022-08-09T16:43:34.236Z,101546.38
2022-08-09T16:46:10.848Z,101542.25
2022-08-09T16:48:54.052Z,101547.00
2022-08-09T16:51:35.258Z,101546.84
2022-08-09T16:54:25.950Z,101540.91
2022-08-09T16:56:54.927Z,101542.75
2022-08-09T16:59:26.217Z,101542.88
2022-08-09T17:02:04.468Z,101538.47
2022-08-09T17:04:35.262Z,101539.81
2022-08-09T17:08:45.395Z,101534.69
2022-08-09T17:10:04.040Z,101544.00
2022-08-09T17:12:34.081Z,101554.00
2022-08-09T17:15:17.954Z,101549.88
2022-08-09T17:18:00.458Z,101556.66
2022-08-09T17:20:35.235Z,101554.25
2022-08-09T17:23:14.786Z,101557.97
2022-08-09T17:25:44.988Z,101548.13
2022-08-09T17:28:22.644Z,101558.97
2022-08-09T17:30:53.107Z,101554.72
2022-08-09T17:33:23.377Z,101556.75
2022-08-09T17:35:53.620Z,101555.69
2022-08-09T17:38:34.109Z,101555.13
2022-08-09T17:41:08.479Z,101556.63
2022-08-09T17:43:38.530Z,101548.66
2022-08-09T17:46:10.124Z,101558.91
2022-08-09T17:48:52.308Z,101564.91
2022-08-09T17:51:23.204Z,101556.91
2022-08-09T17:53:56.423Z,101565.50
2022-08-09T17:56:29.251Z,101563.44
2022-08-09T17:59:09.415Z,101576.28
2022-08-09T18:02:06.573Z,101574.22
2022-08-09T18:04:31.737Z,101567.56
2022-08-09T18:07:04.610Z,101572.59
2022-08-09T18:09:41.588Z,101576.94
2022-08-09T18:12:15.343Z,101578.97
2022-08-09T18:14:53.692Z,101579.22
2022-08-09T18:17:27.287Z,101585.28
2022-08-09T18:20:55.073Z,101582.47
2022-08-09T18:23:07.412Z,101588.50
2022-08-09T18:25:50.869Z,101585.88
2022-08-09T18:30:35.239Z,101584.78
2022-08-09T18:31:15.401Z,101594.50
2022-08-09T18:33:54.932Z,101600.38
2022-08-09T18:36:25.559Z,101588.59
2022-08-09T18:39:02.315Z,101595.31
2022-08-09T18:41:36.967Z,101596.41
2022-08-09T18:44:13.622Z,101596.94
2022-08-09T18:46:47.335Z,101601.78
2022-08-09T18:49:23.849Z,101602.66
2022-08-09T18:51:55.106Z,101600.84
2022-08-09T18:54:29.583Z,101607.16
2022-08-09T18:57:05.461Z,101603.47
2022-08-09T18:59:48.463Z,101609.72
2022-08-09T19:02:19.683Z,101609.47
2022-08-09T19:05:03.894Z,101611.19
2022-08-09T19:07:39.782Z,101615.16
2022-08-09T19:10:14.096Z,101606.47
2022-08-09T19:13:00.361Z,101609.34
2022-08-09T19:15:40.087Z,101622.84
2022-08-09T19:18:17.058Z,101623.56
2022-08-09T19:20:52.247Z,101630.81
2022-08-09T19:24:33.463Z,101625.78
2022-08-09T19:26:18.291Z,101630.47
2022-08-09T19:28:54.762Z,101627.88
2022-08-09T19:31:27.150Z,101634.41
2022-08-09T19:33:56.887Z,101633.25
2022-08-09T19:36:30.896Z,101629.53
2022-08-09T19:39:05.483Z,101636.94
2022-08-09T19:41:35.898Z,101639.31
2022-08-09T19:44:08.366Z,101642.53
2022-08-09T19:46:50.663Z,101649.31
2022-08-09T19:50:07.060Z,101639.28
2022-08-09T19:52:13.266Z,101645.94
2022-08-09T19:54:43.973Z,101647.91
2022-08-09T19:57:13.739Z,101648.78
2022-08-09T20:00:05.417Z,101644.91
2022-08-09T20:04:12.666Z,101648.41
2022-08-09T20:05:29.693Z,101656.25
2022-08-09T20:08:16.002Z,101649.06
2022-08-09T20:10:56.040Z,101650.06
2022-08-09T20:13:27.307Z,101648.13
2022-08-09T20:16:33.876Z,101652.34
2022-08-09T20:19:03.702Z,101647.44
2022-08-09T20:21:55.260Z,101652.19
2022-08-09T20:24:31.957Z,101642.16
2022-08-09T20:27:07.898Z,101653.44
2022-08-09T20:29:39.597Z,101642.44
2022-08-09T20:32:29.220Z,101641.06
2022-08-09T20:35:02.126Z,101642.41
2022-08-09T20:38:19.766Z,101636.94
2022-08-09T20:40:26.416Z,101655.31
2022-08-09T20:42:59.779Z,101648.44
2022-08-09T20:46:00.123Z,101649.69
2022-08-09T20:48:22.814Z,101659.13
2022-08-09T20:50:58.140Z,101650.19
2022-08-09T20:53:36.564Z,101643.09
2022-08-09T20:56:21.055Z,101651.41
2022-08-09T20:58:54.515Z,101643.59
2022-08-09T21:01:34.696Z,101637.47
2022-08-09T21:05:54.686Z,101637.84
2022-08-09T21:07:13.910Z,101642.22
2022-08-09T21:09:56.617Z,101645.00
2022-08-09T21:15:23.844Z,101642.31
2022-08-09T21:18:11.713Z,101641.94
2022-08-09T21:20:56.560Z,101641.41
2022-08-09T21:23:47.544Z,101649.75
2022-08-09T21:26:16.081Z,101646.53
2022-08-09T21:28:55.818Z,101651.56
2022-08-09T21:31:49.453Z,101648.97
2022-08-09T21:34:28.640Z,101651.91
2022-08-09T21:37:01.837Z,101647.13
2022-08-09T21:39:42.012Z,101652.75
2022-08-09T21:42:12.313Z,101657.94
2022-08-09T21:44:42.906Z,101652.06
2022-08-09T21:47:18.171Z,101657.91
2022-08-09T21:49:49.579Z,101662.84
2022-08-09T21:52:23.974Z,101660.41
2022-08-09T21:55:03.801Z,101667.06
2022-08-09T21:57:38.788Z,101665.81
2022-08-09T22:00:32.378Z,101677.38
2022-08-09T22:03:04.817Z,101672.13
2022-08-09T22:05:41.609Z,101673.53
2022-08-09T22:08:16.438Z,101673.00
2022-08-09T22:11:50.291Z,101677.97
2022-08-09T22:13:37.166Z,101679.06
2022-08-09T22:16:09.288Z,101671.03
2022-08-09T22:18:52.848Z,101684.06
2022-08-09T22:21:27.347Z,101680.81
2022-08-09T22:24:24.284Z,101679.22
2022-08-09T22:26:55.112Z,101676.53
2022-08-09T22:29:38.405Z,101685.97
2022-08-09T22:32:29.752Z,101685.22
2022-08-09T22:35:06.259Z,101689.41
2022-08-09T22:37:40.289Z,101686.00
2022-08-09T22:40:20.262Z,101686.31
2022-08-09T22:42:50.213Z,101692.94
2022-08-09T22:48:16.314Z,101692.53
2022-08-09T22:48:19.124Z,101708.19
2022-08-09T22:50:59.432Z,101701.19
2022-08-09T22:53:33.285Z,101696.56
2022-08-09T22:56:33.430Z,101699.66
2022-08-09T22:59:05.964Z,101694.63
2022-08-09T23:01:53.667Z,101702.09
2022-08-09T23:04:25.557Z,101699.75
2022-08-09T23:07:11.208Z,101701.75
2022-08-09T23:09:43.794Z,101697.88
2022-08-09T23:12:16.078Z,101687.56
2022-08-09T23:14:45.780Z,101694.19
2022-08-09T23:17:16.049Z,101695.34
2022-08-09T23:20:06.522Z,101694.72
2022-08-09T23:22:35.840Z,101688.78
2022-08-09T23:25:05.976Z,101696.81
2022-08-09T23:27:59.661Z,101695.41
2022-08-09T23:30:27.942Z,101691.31
2022-08-09T23:32:57.606Z,101688.94
2022-08-09T23:35:27.494Z,101689.22
2022-08-09T23:37:57.193Z,101691.25
2022-08-09T23:40:26.886Z,101689.53
2022-08-09T23:42:59.241Z,101687.16
2022-08-09T23:45:37.531Z,101686.78
2022-08-09T23:48:09.198Z,101691.59
2022-08-09T23:50:39.087Z,101683.81
2022-08-09T23:53:10.408Z,101683.16
2022-08-09T23:55:49.566Z,101685.91
2022-08-09T23:58:26.090Z,101686.41
